Time;durP1;ratioP1;P1;durP2;ratioP2;P2;SDS_P1;SDS_P2;PMS_P1;PMS_P2;Temp;Humidity;BMP_temperature;BMP_pressure;BME280_temperature;BME280_humidity;BME280_pressure;Samples;Min_cycle;Max_cycle;Signal;HPM_P1;HPM_P2
2021/11/10 00:01:49;;;;;;;4.73;4.07;;;0.60;99.90;;;1.35;100.00;99011.59;5059775;28;20450;-78
2021/11/10 00:04:18;;;;;;;5.77;3.80;;;0.60;99.90;;;1.38;100.00;99011.38;5052885;28;20449;-78
2021/11/10 00:06:47;;;;;;;5.70;3.53;;;0.60;99.90;;;1.43;100.00;99016.19;5059624;28;20512;-78
2021/11/10 00:09:16;;;;;;;7.17;3.53;;;0.60;99.90;;;1.35;100.00;99021.06;5057031;28;20471;-78
2021/11/10 00:11:46;;;;;;;6.30;3.57;;;0.40;99.90;;;1.25;100.00;99033.75;5055232;28;20502;-79
2021/11/10 00:14:14;;;;;;;5.87;3.43;;;0.30;99.90;;;1.23;100.00;99025.31;5056181;28;20463;-78
2021/11/10 00:16:43;;;;;;;8.47;3.40;;;0.20;99.90;;;1.26;100.00;99027.66;5057473;28;20464;-78
2021/11/10 00:19:11;;;;;;;5.70;3.33;;;0.40;99.90;;;1.23;100.00;99024.47;5056431;28;21278;-78
2021/11/10 00:21:40;;;;;;;8.27;3.93;;;0.30;99.90;;;1.10;100.00;99021.91;5059836;28;20504;-78
2021/11/10 00:24:08;;;;;;;6.67;4.00;;;0.10;99.90;;;1.03;100.00;99030.97;5061449;28;20458;-78
2021/11/10 00:26:37;;;;;;;5.20;3.70;;;0.00;99.90;;;1.14;100.00;99023.38;5058615;28;20950;-78
2021/11/10 00:29:07;;;;;;;7.37;3.70;;;0.20;99.90;;;1.22;100.00;99026.22;5064651;28;20510;-78
2021/11/10 00:31:35;;;;;;;6.77;4.10;;;0.30;99.90;;;1.12;100.00;99025.19;5057956;28;20507;-78
2021/11/10 00:34:04;;;;;;;4.50;3.13;;;0.20;99.90;;;1.05;100.00;99031.69;5055670;28;20459;-78
2021/11/10 00:36:33;;;;;;;5.17;3.90;;;0.10;99.90;;;1.14;100.00;99033.66;5060310;28;20541;-78
2021/11/10 00:39:01;;;;;;;8.80;3.40;;;0.20;99.90;;;1.09;100.00;99033.13;5059150;28;20994;-78
2021/11/10 00:41:30;;;;;;;4.80;3.40;;;0.10;99.90;;;1.11;100.00;99023.53;5056146;28;20455;-78
2021/11/10 00:44:00;;;;;;;9.83;4.43;;;0.30;99.90;;;1.01;100.00;99037.97;5056363;28;20458;-78
2021/11/10 00:46:31;;;;;;;6.00;3.60;;;0.10;99.90;;;1.05;100.00;99036.00;5050797;28;20461;-78
2021/11/10 00:49:01;;;;;;;8.23;3.83;;;0.10;99.90;;;1.03;100.00;99041.28;5051433;28;20461;-78
2021/11/10 00:51:30;;;;;;;7.27;3.60;;;0.10;99.90;;;1.07;100.00;99053.03;5057035;28;20457;-78
2021/11/10 00:53:59;;;;;;;6.90;4.17;;;0.20;99.90;;;1.08;100.00;99039.22;5059892;28;20503;-78
2021/11/10 00:56:27;;;;;;;9.60;3.77;;;0.20;99.90;;;1.10;100.00;99033.97;5054897;28;20886;-78
2021/11/10 00:58:56;;;;;;;5.53;3.43;;;0.20;99.90;;;0.94;100.00;99027.25;5050975;28;21023;-78
2021/11/10 01:01:24;;;;;;;6.37;3.93;;;-0.10;99.90;;;1.00;100.00;99026.03;5057291;28;20877;-78
2021/11/10 01:03:55;;;;;;;5.07;3.80;;;0.10;99.90;;;1.07;100.00;99031.59;5057131;28;20457;-78
2021/11/10 01:06:23;;;;;;;6.50;4.20;;;0.20;99.90;;;0.97;100.00;99039.13;5051963;28;20515;-78
2021/11/10 01:08:53;;;;;;;5.40;3.07;;;0.00;99.90;;;1.07;100.00;99039.31;5055564;28;20453;-78
2021/11/10 01:11:21;;;;;;;8.60;4.27;;;0.20;99.90;;;1.09;100.00;99033.13;5057598;28;20893;-78
2021/11/10 01:13:50;;;;;;;5.10;3.87;;;0.20;99.90;;;1.12;100.00;99026.94;5057766;28;20511;-78
2021/11/10 01:16:18;;;;;;;7.30;4.37;;;0.30;99.90;;;1.10;100.00;99029.66;5056053;28;20490;-79
2021/11/10 01:18:47;;;;;;;6.70;4.20;;;0.30;99.90;;;1.07;100.00;99031.59;5056045;28;20545;-78
2021/11/10 01:21:17;;;;;;;6.30;4.00;;;0.20;99.90;;;1.05;100.00;99034.25;5050294;28;20472;-78
2021/11/10 01:23:49;;;;;;;10.00;4.47;;;0.10;99.90;;;1.02;100.00;99032.72;5063020;28;20460;-78
2021/11/10 01:26:17;;;;;;;8.03;4.13;;;0.10;99.90;;;0.99;100.00;99039.84;5056433;28;20463;-78
2021/11/10 01:28:46;;;;;;;5.80;3.47;;;0.10;99.90;;;1.00;100.00;99044.91;5053948;28;20456;-78
2021/11/10 01:31:14;;;;;;;7.50;4.60;;;0.10;99.90;;;0.96;100.00;99050.34;5057545;28;20869;-78
2021/11/10 01:33:43;;;;;;;6.00;4.23;;;0.00;99.90;;;0.85;100.00;99053.63;5052194;28;20454;-78
2021/11/10 01:36:12;;;;;;;7.23;4.63;;;-0.20;99.90;;;0.86;100.00;99051.88;5059757;28;20504;-79
2021/11/10 01:38:41;;;;;;;5.17;3.73;;;-0.20;99.90;;;0.93;100.00;99040.25;5058183;28;20457;-78
2021/11/10 01:41:10;;;;;;;6.17;3.77;;;0.00;99.90;;;0.91;100.00;99040.34;5057744;28;20501;-78
2021/11/10 01:43:38;;;;;;;7.83;3.73;;;-0.10;99.90;;;0.89;100.00;99033.66;5066723;28;20452;-78
2021/11/10 01:46:07;;;;;;;6.00;4.10;;;-0.10;99.90;;;0.85;100.00;99029.63;5055941;28;20463;-78
2021/11/10 01:48:36;;;;;;;9.00;4.13;;;-0.10;99.90;;;0.85;100.00;99039.94;5062525;28;20511;-78
2021/11/10 01:51:05;;;;;;;8.23;4.20;;;-0.10;99.90;;;0.89;100.00;99033.66;5059804;28;21062;-78
2021/11/10 01:53:34;;;;;;;6.90;4.30;;;0.00;99.90;;;0.92;100.00;99023.16;5054374;28;20451;-78
2021/11/10 01:56:05;;;;;;;4.90;3.37;;;0.00;99.90;;;0.91;100.00;99019.75;5061342;28;20539;-77
2021/11/10 01:58:34;;;;;;;6.70;4.03;;;0.00;99.90;;;0.80;100.00;99014.47;5058208;28;21000;-78
2021/11/10 02:01:03;;;;;;;8.23;4.03;;;-0.10;99.90;;;0.82;100.00;99024.69;5056552;28;20869;-78
2021/11/10 02:03:31;;;;;;;6.13;3.50;;;0.00;99.90;;;0.84;100.00;99023.66;5056250;28;20465;-77
2021/11/10 02:06:00;;;;;;;7.63;3.90;;;0.00;99.90;;;0.79;100.00;99019.75;5055622;28;20484;-78
2021/11/10 02:08:28;;;;;;;7.03;4.10;;;-0.20;99.90;;;0.77;100.00;99013.88;5055284;28;20798;-78
2021/11/10 02:10:58;;;;;;;6.83;3.70;;;-0.20;99.90;;;0.80;100.00;98998.25;5057334;28;20538;-77
2021/11/10 02:13:28;;;;;;;7.27;4.40;;;-0.20;99.90;;;0.72;100.00;98992.78;5057654;28;20936;-77
2021/11/10 02:15:57;;;;;;;5.77;3.57;;;-0.30;99.90;;;0.70;100.00;98989.47;5056018;28;20886;-78
2021/11/10 02:18:25;;;;;;;7.40;3.67;;;-0.30;99.90;;;0.73;100.00;98989.28;5061509;28;20450;-77
2021/11/10 02:20:55;;;;;;;6.43;3.63;;;-0.20;99.90;;;0.72;100.00;98979.91;5060385;28;20477;-78
2021/11/10 02:23:23;;;;;;;7.60;3.97;;;-0.20;99.90;;;0.67;100.00;98982.78;5060835;28;20479;-77
2021/11/10 02:25:58;;;;;;;6.37;4.30;;;-0.40;99.90;;;0.60;100.00;98978.97;5061904;28;20528;-78
2021/11/10 02:28:26;;;;;;;3.90;3.13;;;-0.40;99.90;;;0.56;100.00;98977.50;5057125;28;20454;-78
2021/11/10 02:30:55;;;;;;;6.43;3.53;;;-0.40;99.90;;;0.60;100.00;98972.97;5063493;28;20460;-77
2021/11/10 02:33:29;;;;;;;6.67;3.90;;;-0.30;99.90;;;0.63;100.00;98975.34;5052485;28;20973;-78
2021/11/10 02:36:05;;;;;;;6.20;3.70;;;-0.30;99.90;;;0.63;100.00;98975.34;5072033;28;20550;-77
2021/11/10 02:38:35;;;;;;;4.10;3.20;;;-0.20;99.90;;;0.62;100.00;98984.03;5062929;28;21806;-78
2021/11/10 02:41:05;;;;;;;6.43;4.20;;;-0.30;99.90;;;0.53;100.00;98982.88;5050945;28;20852;-78
2021/11/10 02:43:33;;;;;;;8.63;4.07;;;-0.50;99.90;;;0.61;100.00;98979.78;5058689;28;20924;-78
2021/11/10 02:46:02;;;;;;;6.00;3.80;;;-0.30;99.90;;;0.63;100.00;98990.78;5062448;28;20819;-78
2021/11/10 02:48:31;;;;;;;4.77;3.53;;;-0.20;99.90;;;0.62;100.00;98986.59;5054328;28;20453;-78
2021/11/10 02:51:01;;;;;;;7.33;3.73;;;-0.20;99.90;;;0.55;100.00;98978.47;5054992;28;20554;-78
2021/11/10 02:53:33;;;;;;;11.30;3.83;;;-0.30;99.90;;;0.60;100.00;98971.25;5066508;28;20469;-78
2021/11/10 02:56:01;;;;;;;8.53;4.90;;;-0.30;99.90;;;0.64;100.00;98954.69;5055129;28;20499;-78
2021/11/10 02:58:33;;;;;;;4.37;3.40;;;-0.20;99.90;;;0.67;100.00;98951.91;5060382;28;20520;-77
2021/11/10 03:01:02;;;;;;;8.20;4.27;;;-0.10;99.90;;;0.68;100.00;98952.72;5056047;28;20465;-78
2021/11/10 03:03:31;;;;;;;12.67;4.10;;;0.00;99.90;;;0.68;100.00;98939.84;5054171;28;20921;-78
2021/11/10 03:06:01;;;;;;;6.10;4.17;;;-0.10;99.90;;;0.65;100.00;98922.06;5053070;28;20512;-78
2021/11/10 03:08:29;;;;;;;9.20;4.10;;;-0.10;99.90;;;0.63;100.00;98931.59;5058781;28;20567;-78
2021/11/10 03:10:58;;;;;;;7.90;3.93;;;0.10;99.90;;;0.64;100.00;98925.53;5059002;28;20507;-78
2021/11/10 03:13:27;;;;;;;4.37;3.30;;;0.00;99.90;;;0.69;100.00;98900.34;5061577;28;21008;-78
2021/11/10 03:15:55;;;;;;;6.63;3.80;;;0.00;99.90;;;0.68;100.00;98902.09;5060132;28;20519;-78
2021/11/10 03:18:24;;;;;;;18.00;4.43;;;0.00;99.90;;;0.63;100.00;98937.59;5053687;28;20951;-78
2021/11/10 03:20:52;;;;;;;6.80;3.70;;;-0.10;99.90;;;0.70;100.00;98953.44;5056086;28;20488;-78
2021/11/10 03:23:22;;;;;;;7.23;4.40;;;-0.10;99.90;;;0.70;100.00;98956.00;5055758;28;20538;-77
2021/11/10 03:25:51;;;;;;;6.57;3.83;;;-0.20;99.90;;;0.67;100.00;98956.22;5059226;28;20533;-78
2021/11/10 03:28:19;;;;;;;3.90;3.30;;;-0.10;99.90;;;0.68;100.00;98957.88;5055460;28;20539;-78
2021/11/10 03:30:48;;;;;;;9.90;3.93;;;-0.10;99.90;;;0.61;100.00;98951.47;5057705;28;20519;-78
2021/11/10 03:33:17;;;;;;;6.07;4.10;;;-0.20;99.90;;;0.64;100.00;98930.69;5057938;28;20487;-79
2021/11/10 03:35:46;;;;;;;7.00;4.40;;;-0.20;99.90;;;0.57;100.00;98929.44;5062719;28;20488;-78
2021/11/10 03:38:14;;;;;;;7.50;4.10;;;-0.30;99.90;;;0.59;100.00;98932.75;5052893;28;20498;-78
2021/11/10 03:40:44;;;;;;;7.90;3.80;;;-0.20;99.90;;;0.58;100.00;98931.09;5060690;28;20489;-78
2021/11/10 03:43:12;;;;;;;8.30;4.00;;;-0.30;99.90;;;0.60;100.00;98936.97;5054690;28;20454;-78
2021/11/10 03:45:41;;;;;;;13.00;3.83;;;-0.20;99.90;;;0.63;100.00;98934.19;5055421;28;20516;-78
2021/11/10 03:48:10;;;;;;;7.20;4.00;;;-0.10;99.90;;;0.57;100.00;98934.59;5054546;28;20460;-78
2021/11/10 03:50:39;;;;;;;13.63;4.03;;;-0.30;99.90;;;0.59;100.00;98922.47;5057708;28;21016;-78
2021/11/10 03:53:08;;;;;;;7.23;4.57;;;-0.20;99.90;;;0.60;100.00;98918.94;5056049;28;20501;-78
2021/11/10 03:55:37;;;;;;;8.00;3.60;;;-0.20;99.90;;;0.61;100.00;98931.72;5052843;28;20458;-78
2021/11/10 03:58:10;;;;;;;5.63;3.40;;;-0.20;99.90;;;0.63;100.00;98939.31;5055485;28;20585;-78
2021/11/10 04:00:38;;;;;;;10.67;4.10;;;-0.20;99.90;;;0.67;100.00;98940.78;5057158;28;20460;-78
2021/11/10 04:03:08;;;;;;;5.20;3.50;;;-0.10;99.90;;;0.65;100.00;98937.50;5055575;28;20537;-78
2021/11/10 04:05:36;;;;;;;8.80;3.80;;;-0.30;99.90;;;0.66;100.00;98918.56;5060307;28;20882;-78
2021/11/10 04:08:05;;;;;;;7.70;3.93;;;-0.20;99.90;;;0.64;100.00;98920.41;5054100;28;20522;-77
2021/11/10 04:10:34;;;;;;;5.93;3.37;;;-0.20;99.90;;;0.62;100.00;98906.81;5050784;28;20871;-78
2021/11/10 04:13:02;;;;;;;10.33;3.90;;;0.00;99.90;;;0.65;100.00;98906.63;5056032;28;21052;-78
2021/11/10 04:15:33;;;;;;;11.50;4.47;;;-0.20;99.90;;;0.66;100.00;98892.84;5058184;28;20490;-78
2021/11/10 04:18:02;;;;;;;4.97;3.73;;;-0.20;99.90;;;0.63;100.00;98896.41;5057980;28;20601;-78
2021/11/10 04:20:30;;;;;;;8.10;4.50;;;-0.10;99.90;;;0.67;100.00;98894.47;5053590;28;20996;-78
2021/11/10 04:23:00;;;;;;;10.43;3.90;;;-0.20;99.90;;;0.65;100.00;98883.47;5062747;28;20456;-78
2021/11/10 04:25:29;;;;;;;7.17;4.20;;;-0.10;99.90;;;0.64;100.00;98886.94;5056962;28;20958;-77
2021/11/10 04:27:57;;;;;;;4.97;3.77;;;-0.10;99.90;;;0.62;100.00;98870.81;5056833;28;20468;-78
2021/11/10 04:30:26;;;;;;;8.47;4.13;;;-0.10;99.90;;;0.63;100.00;98868.09;5055774;28;20494;-78
2021/11/10 04:32:56;;;;;;;6.57;3.67;;;-0.20;99.90;;;0.66;100.00;98867.09;5060950;28;20479;-78
2021/11/10 04:35:24;;;;;;;10.30;4.07;;;-0.20;99.90;;;0.61;100.00;98874.28;5056091;28;20474;-78
2021/11/10 04:37:53;;;;;;;9.73;4.13;;;-0.20;99.90;;;0.61;100.00;98876.88;5054794;28;20798;-78
2021/11/10 04:40:21;;;;;;;6.90;4.20;;;-0.10;99.90;;;0.54;100.00;98879.03;5057542;28;20453;-78
2021/11/10 04:42:50;;;;;;;11.10;4.87;;;-0.30;99.90;;;0.60;100.00;98875.22;5058208;28;20530;-78
2021/11/10 04:45:22;;;;;;;6.43;3.83;;;-0.30;99.90;;;0.57;100.00;98872.84;5052508;28;20879;-78
2021/11/10 04:47:51;;;;;;;8.40;3.23;;;-0.10;99.90;;;0.55;100.00;98867.81;5053146;28;20530;-78
2021/11/10 04:50:22;;;;;;;9.00;4.40;;;-0.10;99.90;;;0.52;100.00;98866.25;5053864;28;20457;-78
2021/11/10 04:52:50;;;;;;;6.23;3.90;;;-0.30;99.90;;;0.54;100.00;98888.50;5054709;28;20491;-78
2021/11/10 04:55:19;;;;;;;6.00;3.50;;;-0.40;99.90;;;0.57;100.00;98876.25;5058172;28;20471;-78
2021/11/10 04:57:48;;;;;;;6.00;4.30;;;-0.30;99.90;;;0.62;100.00;98887.06;5055380;28;20497;-78
2021/11/10 05:00:17;;;;;;;7.90;4.67;;;-0.20;99.90;;;0.61;100.00;98894.88;5060933;28;21017;-78
2021/11/10 05:02:45;;;;;;;17.63;3.60;;;-0.10;99.90;;;0.61;100.00;98890.56;5059361;28;20794;-78
2021/11/10 05:05:15;;;;;;;10.67;5.10;;;-0.20;99.90;;;0.65;100.00;98901.47;5054627;28;20518;-78
2021/11/10 05:07:48;;;;;;;7.00;4.40;;;-0.20;99.90;;;0.59;100.00;98899.31;5056608;28;20442;-78
2021/11/10 05:10:18;;;;;;;7.43;4.00;;;-0.20;99.90;;;0.57;100.00;98898.59;5051786;28;20468;-78
2021/11/10 05:12:46;;;;;;;6.03;4.20;;;-0.30;99.90;;;0.59;100.00;98894.16;5050549;28;20885;-78
2021/11/10 05:15:15;;;;;;;5.60;3.93;;;-0.30;99.90;;;0.62;100.00;98909.41;5054440;28;20461;-78
2021/11/10 05:17:43;;;;;;;6.87;3.63;;;-0.20;99.90;;;0.61;100.00;98916.28;5052673;28;20473;-78
2021/11/10 05:20:12;;;;;;;7.77;4.47;;;-0.20;99.90;;;0.61;100.00;98902.59;5059926;28;20498;-78
2021/11/10 05:22:41;;;;;;;6.70;4.50;;;-0.20;99.90;;;0.59;100.00;98917.31;5067501;28;20444;-77
2021/11/10 05:25:12;;;;;;;7.10;3.90;;;-0.30;99.90;;;0.59;100.00;98912.19;5053584;28;20457;-77
2021/11/10 05:27:41;;;;;;;5.80;4.07;;;-0.30;99.90;;;0.62;100.00;98917.94;5053240;28;20862;-78
2021/11/10 05:30:12;;;;;;;6.43;4.23;;;-0.20;99.90;;;0.60;100.00;98924.09;5059005;28;20460;-81
2021/11/10 05:32:41;;;;;;;7.37;4.10;;;-0.30;99.90;;;0.61;100.00;98925.75;5058151;28;20927;-78
2021/11/10 05:35:11;;;;;;;5.27;3.70;;;-0.30;99.90;;;0.63;100.00;98918.75;5054356;28;21098;-78
2021/11/10 05:37:40;;;;;;;8.93;4.70;;;-0.20;99.90;;;0.64;100.00;98905.78;5051550;28;20992;-78
2021/11/10 05:40:11;;;;;;;15.73;6.70;;;-0.20;99.90;;;0.63;100.00;98929.03;5060988;28;21070;-79
2021/11/10 05:42:40;;;;;;;5.17;4.27;;;-0.20;99.90;;;0.59;100.00;98937.91;5061721;28;20509;-77
2021/11/10 05:45:10;;;;;;;6.27;3.70;;;-0.30;99.90;;;0.62;100.00;98935.13;5055494;28;20508;-77
2021/11/10 05:47:38;;;;;;;9.40;4.43;;;-0.30;99.90;;;0.64;100.00;98938.41;5060659;28;20503;-77
2021/11/10 05:50:10;;;;;;;16.33;4.60;;;-0.20;99.90;;;0.62;100.00;98940.28;5056649;28;20518;-78
2021/11/10 05:52:41;;;;;;;5.70;4.00;;;-0.20;99.90;;;0.61;100.00;98933.47;5064588;28;20441;-78
2021/11/10 05:55:11;;;;;;;5.37;3.50;;;-0.20;99.90;;;0.51;100.00;98941.00;5064077;28;20908;-78
2021/11/10 05:57:40;;;;;;;6.30;4.00;;;-0.40;99.90;;;0.52;100.00;98936.66;5060708;28;20521;-78
2021/11/10 06:00:12;;;;;;;5.40;4.10;;;-0.40;99.90;;;0.54;100.00;98929.66;5064473;28;20444;-77
2021/11/10 06:02:43;;;;;;;9.57;4.40;;;-0.40;99.90;;;0.52;100.00;98926.38;5064860;28;20453;-78
2021/11/10 06:05:16;;;;;;;8.53;4.60;;;-0.20;99.90;;;0.52;100.00;98928.97;5062355;28;20468;-77
2021/11/10 06:07:45;;;;;;;6.47;4.00;;;-0.40;99.90;;;0.49;100.00;98919.66;5062091;28;20454;-78
2021/11/10 06:10:18;;;;;;;6.07;4.23;;;-0.30;99.90;;;0.44;100.00;98914.84;5061024;28;20504;-78
2021/11/10 06:12:47;;;;;;;5.30;3.50;;;-0.30;99.90;;;0.46;100.00;98927.59;5058812;28;20974;-78
2021/11/10 06:15:16;;;;;;;7.90;4.50;;;-0.30;99.90;;;0.43;100.00;98925.22;5063918;28;20481;-78
2021/11/10 06:17:45;;;;;;;9.00;4.30;;;-0.20;99.90;;;0.48;100.00;98931.75;5067842;28;20533;-78
2021/11/10 06:20:15;;;;;;;5.97;3.80;;;-0.20;99.90;;;0.50;100.00;98926.47;5069397;28;20449;-78
2021/11/10 06:22:43;;;;;;;8.70;3.83;;;-0.30;99.90;;;0.45;100.00;98928.53;5072278;28;20444;-78
2021/11/10 06:25:12;;;;;;;8.37;4.00;;;-0.40;99.90;;;0.38;100.00;98947.88;5069174;28;20498;-78
2021/11/10 06:27:42;;;;;;;6.43;4.10;;;-0.50;99.90;;;0.42;100.00;98937.25;5071216;28;20491;-78
2021/11/10 06:30:12;;;;;;;8.13;4.23;;;-0.40;99.90;;;0.44;100.00;98940.56;5070139;28;20505;-78
2021/11/10 06:32:45;;;;;;;7.93;4.57;;;-0.50;99.90;;;0.40;100.00;98938.31;5056353;28;20826;-77
2021/11/10 06:35:14;;;;;;;7.63;4.20;;;-0.60;99.90;;;0.42;100.00;98942.41;5071175;28;20797;-78
2021/11/10 06:37:43;;;;;;;6.70;4.20;;;-0.40;99.90;;;0.40;100.00;98933.97;5058454;28;20461;-78
2021/11/10 06:40:13;;;;;;;10.37;4.70;;;-0.40;99.90;;;0.38;100.00;98930.66;5066516;28;20441;-77
2021/11/10 06:42:43;;;;;;;8.70;4.97;;;-0.50;99.90;;;0.35;100.00;98933.44;5070542;28;20444;-77
2021/11/10 06:45:12;;;;;;;5.37;3.80;;;-0.60;99.90;;;0.37;100.00;98931.63;5072444;28;21015;-77
2021/11/10 06:47:41;;;;;;;5.40;4.17;;;-0.50;99.90;;;0.38;100.00;98927.31;5073610;28;20984;-77
2021/11/10 06:50:11;;;;;;;6.00;4.53;;;-0.50;99.90;;;0.42;100.00;98924.41;5060242;28;20490;-78
2021/11/10 06:52:39;;;;;;;8.53;3.97;;;-0.50;99.90;;;0.39;100.00;98922.03;5064014;28;20443;-77
2021/11/10 06:55:10;;;;;;;7.83;4.60;;;-0.50;99.90;;;0.36;100.00;98914.53;5064235;28;20443;-78
2021/11/10 06:57:39;;;;;;;6.60;4.53;;;-0.50;99.90;;;0.30;100.00;98932.13;5066264;28;20941;-78
2021/11/10 07:00:14;;;;;;;7.37;4.67;;;-0.60;99.90;;;0.33;100.00;98926.75;5069361;28;20496;-78
2021/11/10 07:02:44;;;;;;;9.40;4.73;;;-0.60;99.90;;;0.34;100.00;98929.25;5058342;28;21089;-78
2021/11/10 07:05:13;;;;;;;8.80;3.73;;;-0.50;99.90;;;0.34;100.00;98941.28;5074108;28;20614;-78
2021/11/10 07:07:41;;;;;;;13.03;5.20;;;-0.50;99.90;;;0.35;100.00;98941.16;5059635;28;20513;-78
2021/11/10 07:10:10;;;;;;;22.93;11.27;;;-0.50;99.90;;;0.36;100.00;98940.25;5064542;28;20820;-78
2021/11/10 07:12:39;;;;;;;8.67;5.30;;;-0.50;99.90;;;0.37;100.00;98939.34;5069250;28;20994;-78
2021/11/10 07:15:11;;;;;;;8.30;4.33;;;-0.40;99.90;;;0.42;100.00;98937.25;5068223;28;20498;-78
2021/11/10 07:17:39;;;;;;;8.97;4.10;;;-0.40;99.90;;;0.37;100.00;98923.91;5058557;28;20456;-78
2021/11/10 07:20:09;;;;;;;6.80;5.23;;;-0.50;99.90;;;0.36;100.00;98927.38;5063855;28;21008;-78
2021/11/10 07:22:38;;;;;;;8.03;4.63;;;-0.50;99.90;;;0.37;100.00;98931.63;5069054;28;20500;-78
2021/11/10 07:25:08;;;;;;;5.27;3.70;;;-0.50;99.90;;;0.40;100.00;98933.97;5069818;28;20497;-78
2021/11/10 07:27:37;;;;;;;8.47;4.33;;;-0.50;99.90;;;0.42;100.00;98937.25;5065641;28;20493;-77
2021/11/10 07:30:11;;;;;;;10.47;4.70;;;-0.40;99.90;;;0.47;100.00;98952.41;5061008;28;20472;-77
2021/11/10 07:32:42;;;;;;;7.90;4.57;;;-0.30;99.90;;;0.49;100.00;98953.94;5068033;28;20489;-78
2021/11/10 07:35:13;;;;;;;6.10;4.30;;;-0.30;99.90;;;0.52;100.00;98952.09;5071208;28;20457;-78
2021/11/10 07:37:44;;;;;;;13.33;6.20;;;-0.30;99.90;;;0.54;100.00;98955.38;5059001;28;20980;-77
2021/11/10 07:40:16;;;;;;;9.90;4.70;;;-0.20;99.90;;;0.51;100.00;98959.00;5066091;28;20488;-78
2021/11/10 07:42:45;;;;;;;5.70;4.80;;;-0.40;99.90;;;0.50;100.00;98965.06;5059865;28;20925;-77
2021/11/10 07:45:19;;;;;;;6.57;4.57;;;-0.40;99.90;;;0.47;100.00;98968.66;5069324;28;20494;-78
2021/11/10 07:47:51;;;;;;;11.63;5.17;;;-0.40;99.90;;;0.52;100.00;98962.41;5071304;28;20436;-77
2021/11/10 07:50:23;;;;;;;11.90;4.23;;;-0.20;99.90;;;0.56;100.00;98958.66;5066548;28;20856;-78
2021/11/10 07:52:52;;;;;;;5.87;4.33;;;-0.10;99.90;;;0.60;100.00;98957.53;5074396;28;20486;-78
2021/11/10 07:55:21;;;;;;;10.07;4.80;;;-0.20;99.90;;;0.62;100.00;98968.56;5063158;28;20461;-78
2021/11/10 07:57:50;;;;;;;9.30;5.17;;;-0.20;99.90;;;0.67;100.00;98966.50;5063609;28;20502;-77
2021/11/10 08:00:47;;;;;;;7.27;4.50;;;-0.10;99.90;;;0.71;100.00;98968.78;5055764;28;21063;-78
2021/11/10 08:03:19;;;;;;;10.07;5.20;;;-0.10;99.90;;;0.73;100.00;98986.72;5070845;28;20476;-78
2021/11/10 08:06:27;;;;;;;6.43;4.90;;;0.00;99.90;;;0.79;100.00;98981.16;5069829;28;20519;-78
2021/11/10 08:09:08;;;;;;;11.47;5.50;;;0.00;99.90;;;0.84;100.00;98982.47;5059319;28;20555;-78
2021/11/10 08:11:39;;;;;;;7.57;4.63;;;0.00;99.90;;;0.89;100.00;98982.16;5064575;28;20493;-78
2021/11/10 08:14:11;;;;;;;7.50;4.83;;;0.10;99.90;;;0.91;100.00;98986.28;5065259;28;20451;-78
2021/11/10 08:16:45;;;;;;;7.97;4.93;;;0.10;99.90;;;0.94;100.00;98986.06;5063555;28;20448;-78
2021/11/10 08:19:15;;;;;;;9.70;5.57;;;0.10;99.90;;;0.99;100.00;98983.19;5071817;28;20493;-78
2021/11/10 08:22:09;;;;;;;6.37;4.40;;;0.20;99.90;;;1.06;100.00;98976.69;5060547;28;20510;-78
2021/11/10 08:24:48;;;;;;;9.60;5.10;;;0.20;99.90;;;1.11;100.00;98972.03;5059728;28;20460;-78
2021/11/10 08:27:22;;;;;;;12.20;5.10;;;0.30;99.90;;;1.15;100.00;98976.06;5067522;28;20800;-78
2021/11/10 08:29:55;;;;;;;8.80;5.00;;;0.40;99.90;;;1.18;100.00;98981.00;5061061;28;20525;-78
2021/11/10 08:32:25;;;;;;;15.43;5.30;;;0.40;99.90;;;1.20;100.00;98976.59;5069487;28;20562;-78
2021/11/10 08:34:55;;;;;;;7.50;4.60;;;0.50;99.90;;;1.23;100.00;98971.22;5064660;28;20460;-78
2021/11/10 08:37:25;;;;;;;5.83;4.23;;;0.40;99.90;;;1.25;100.00;98968.56;5067936;28;20460;-78
2021/11/10 08:39:57;;;;;;;8.17;4.43;;;0.40;99.90;;;1.27;100.00;98970.09;5065069;28;20493;-78
2021/11/10 08:42:42;;;;;;;10.10;4.37;;;0.50;99.90;;;1.29;100.00;98970.78;5059794;28;20984;-79
2021/11/10 08:45:33;;;;;;;7.27;4.87;;;0.50;99.90;;;1.30;100.00;98972.44;5060289;28;20448;-78
2021/11/10 08:48:15;;;;;;;8.83;5.00;;;0.50;99.90;;;1.32;100.00;98978.28;5053903;28;20462;-78
2021/11/10 08:50:49;;;;;;;10.50;4.60;;;0.50;99.90;;;1.35;100.00;98980.69;5059548;28;20459;-78
2021/11/10 08:53:22;;;;;;;17.53;4.67;;;0.50;99.90;;;1.37;100.00;98971.09;5058897;28;20476;-78
2021/11/10 08:56:03;;;;;;;7.10;5.00;;;0.60;99.90;;;1.41;100.00;98976.84;5065116;28;20443;-78
2021/11/10 08:58:39;;;;;;;8.43;5.40;;;0.60;99.90;;;1.45;100.00;98979.13;5059361;28;20472;-78
2021/11/10 09:01:17;;;;;;;9.97;5.27;;;0.70;99.90;;;1.49;100.00;98977.16;5058531;28;20487;-78
2021/11/10 09:03:50;;;;;;;11.20;5.87;;;0.70;99.90;;;1.54;100.00;98980.22;5053391;28;20469;-78
2021/11/10 09:06:25;;;;;;;28.13;6.20;;;0.70;99.90;;;1.52;100.00;98975.19;5055716;28;20483;-79
2021/11/10 09:09:03;;;;;;;6.17;4.83;;;0.70;99.90;;;1.57;100.00;98974.84;5057841;28;20458;-79
2021/11/10 09:11:41;;;;;;;11.63;6.37;;;0.70;99.90;;;1.62;100.00;98977.94;5054303;28;20492;-78
2021/11/10 09:14:09;;;;;;;14.93;6.90;;;0.80;99.90;;;1.65;100.00;98976.88;5059036;28;20836;-78
2021/11/10 09:16:52;;;;;;;11.53;5.90;;;0.90;99.90;;;1.71;100.00;98966.13;5064245;28;20457;-78
2021/11/10 09:19:32;;;;;;;10.43;6.23;;;0.90;99.90;;;1.77;100.00;98965.72;5062803;28;20520;-78
2021/11/10 09:22:22;;;;;;;;;;;;;;;;;;;;;
2021/11/10 09:25:01;;;;;;;12.80;6.00;;;1.00;99.90;;;1.85;100.00;98994.34;5072281;28;20462;-79
2021/11/10 09:27:31;;;;;;;10.80;5.37;;;1.00;99.90;;;1.92;100.00;98992.97;5065283;28;20471;-78
2021/11/10 09:30:00;;;;;;;20.13;7.83;;;1.20;99.90;;;1.98;100.00;98985.63;5065533;28;20479;-79
2021/11/10 09:32:36;;;;;;;21.33;7.10;;;1.20;99.90;;;2.02;100.00;98981.88;5060437;28;20986;-79
2021/11/10 09:35:33;;;;;;;13.37;7.50;;;1.30;99.90;;;2.10;100.00;98989.06;5059207;28;20907;-79
2021/11/10 09:38:16;;;;;;;11.00;5.90;;;1.30;99.90;;;2.17;100.00;98990.28;5061018;28;20462;-79
2021/11/10 09:41:10;;;;;;;10.83;6.40;;;1.40;99.90;;;2.22;100.00;99001.06;5062884;28;20502;-78
2021/11/10 09:44:07;;;;;;;12.60;6.40;;;1.40;99.90;;;2.26;100.00;99001.69;5066358;28;20916;-79
2021/11/10 09:46:48;;;;;;;10.63;5.60;;;1.50;99.90;;;2.32;100.00;98999.50;5058075;28;20495;-78
2021/11/10 09:52:16;;;;;;;9.70;5.90;;;1.60;99.90;;;2.45;100.00;99002.81;5061868;28;20481;-79
2021/11/10 09:54:46;;;;;;;10.43;6.60;;;1.70;99.90;;;2.51;100.00;98999.78;5058269;28;20504;-78
2021/11/10 09:57:23;;;;;;;14.90;6.80;;;1.80;99.90;;;2.59;100.00;98990.66;5065100;28;20947;-78
2021/11/10 09:59:55;;;;;;;12.37;5.80;;;1.80;99.90;;;2.64;100.00;98988.56;5073576;28;20490;-78
2021/11/10 10:02:56;;;;;;;16.97;6.13;;;1.90;99.90;;;2.70;100.00;98982.94;5061539;28;20460;-79
2021/11/10 10:05:35;;;;;;;13.80;6.60;;;1.90;99.90;;;2.75;100.00;98981.66;5069235;28;20521;-78
2021/11/10 10:08:20;;;;;;;7.30;5.30;;;2.00;99.90;;;2.81;100.00;98973.44;5066202;28;20531;-78
2021/11/10 10:10:51;;;;;;;9.43;6.10;;;2.10;99.90;;;2.87;100.00;98972.16;5061186;28;20940;-78
2021/11/10 10:17:04;;;;;;;12.07;6.13;;;2.20;99.90;;;2.96;100.00;98959.38;5058573;28;20598;-79
2021/11/10 10:19:44;;;;;;;11.80;6.40;;;2.20;99.90;;;3.01;100.00;98974.53;5073570;28;20452;-79
2021/11/10 10:22:28;;;;;;;12.13;6.07;;;2.30;99.90;;;3.09;100.00;98964.41;5074045;28;20918;-78
2021/11/10 10:25:06;;;;;;;11.90;6.13;;;2.30;99.90;;;3.12;100.00;98964.19;5071168;28;20466;-78
2021/11/10 10:27:54;;;;;;;21.50;6.17;;;2.40;99.90;;;3.20;100.00;98961.84;5072313;28;20461;-79
2021/11/10 10:30:32;;;;;;;11.90;6.87;;;2.40;99.90;;;3.28;100.00;98972.41;5070905;28;21042;-79
2021/11/10 10:33:11;;;;;;;13.23;7.17;;;2.60;99.90;;;3.36;100.00;98969.25;5071369;28;20458;-79
2021/11/10 10:35:48;;;;;;;13.43;7.13;;;2.60;99.90;;;3.45;100.00;98974.50;5070022;28;20553;-79
2021/11/10 10:38:23;;;;;;;15.53;7.00;;;2.80;99.90;;;3.51;100.00;98975.78;5064270;28;20439;-78
2021/11/10 10:41:08;;;;;;;12.10;6.50;;;2.90;99.90;;;3.55;100.00;98970.25;5060516;28;20495;-79
2021/11/10 10:43:46;;;;;;;16.20;7.43;;;3.00;99.90;;;3.62;100.00;98980.94;5060865;28;20460;-78
2021/11/10 10:46:21;;;;;;;13.37;7.60;;;3.00;99.90;;;3.69;100.00;98976.09;5058818;28;20799;-79
2021/11/10 10:49:15;;;;;;;13.00;6.33;;;3.00;99.90;;;3.74;100.00;98971.41;5070832;28;20457;-79